sensor_id;sensor_type;location;lat;lon;timestamp;temperature;humidity
17385;DHT22;8810;48.680;8.894;2022-08-20T00:01:21;19.10;99.90
17385;DHT22;8810;48.680;8.894;2022-08-20T00:03:47;19.10;99.90
17385;DHT22;8810;48.680;8.894;2022-08-20T00:06:17;19.10;99.90
17385;DHT22;8810;48.680;8.894;2022-08-20T00:08:45;19.00;99.90
17385;DHT22;8810;48.680;8.894;2022-08-20T00:11:15;19.00;99.90
17385;DHT22;8810;48.680;8.894;2022-08-20T00:13:50;19.00;99.90
17385;DHT22;8810;48.680;8.894;2022-08-20T00:16:19;19.00;99.90
17385;DHT22;8810;48.680;8.894;2022-08-20T00:18:47;19.00;99.90
17385;DHT22;8810;48.680;8.894;2022-08-20T00:21:17;19.00;99.90
17385;DHT22;8810;48.680;8.894;2022-08-20T00:23:46;19.00;99.90
17385;DHT22;8810;48.680;8.894;2022-08-20T00:26:14;19.00;99.90
17385;DHT22;8810;48.680;8.894;2022-08-20T00:28:41;19.00;99.90
17385;DHT22;8810;48.680;8.894;2022-08-20T00:31:11;19.00;99.90
17385;DHT22;8810;48.680;8.894;2022-08-20T00:33:38;19.00;99.90
17385;DHT22;8810;48.680;8.894;2022-08-20T00:36:06;19.00;99.90
17385;DHT22;8810;48.680;8.894;2022-08-20T00:38:37;19.00;99.90
17385;DHT22;8810;48.680;8.894;2022-08-20T00:41:06;19.00;99.90
17385;DHT22;8810;48.680;8.894;2022-08-20T00:43:36;19.00;99.90
17385;DHT22;8810;48.680;8.894;2022-08-20T00:46:07;19.10;99.90
17385;DHT22;8810;48.680;8.894;2022-08-20T00:48:36;19.10;99.90
17385;DHT22;8810;48.680;8.894;2022-08-20T00:51:06;19.10;99.90
17385;DHT22;8810;48.680;8.894;2022-08-20T00:53:33;19.10;99.90
17385;DHT22;8810;48.680;8.894;2022-08-20T00:56:04;19.10;99.90
17385;DHT22;8810;48.680;8.894;2022-08-20T00:58:32;19.10;99.90
17385;DHT22;8810;48.680;8.894;2022-08-20T01:00:59;19.20;99.90
17385;DHT22;8810;48.680;8.894;2022-08-20T01:03:26;19.20;99.90
17385;DHT22;8810;48.680;8.894;2022-08-20T01:05:53;19.20;99.90
17385;DHT22;8810;48.680;8.894;2022-08-20T01:08:21;19.20;99.90
17385;DHT22;8810;48.680;8.894;2022-08-20T01:10:52;19.20;99.90
17385;DHT22;8810;48.680;8.894;2022-08-20T01:13:26;19.20;99.90
17385;DHT22;8810;48.680;8.894;2022-08-20T01:15:55;19.20;99.90
17385;DHT22;8810;48.680;8.894;2022-08-20T01:18:25;19.30;99.90
17385;DHT22;8810;48.680;8.894;2022-08-20T01:20:55;19.30;99.90
17385;DHT22;8810;48.680;8.894;2022-08-20T01:23:30;19.30;99.90
17385;DHT22;8810;48.680;8.894;2022-08-20T01:26:03;19.30;99.90
17385;DHT22;8810;48.680;8.894;2022-08-20T01:28:36;19.30;99.90
17385;DHT22;8810;48.680;8.894;2022-08-20T01:31:05;19.30;99.90
17385;DHT22;8810;48.680;8.894;2022-08-20T01:33:32;19.30;99.90
17385;DHT22;8810;48.680;8.894;2022-08-20T01:35:59;19.30;99.90
17385;DHT22;8810;48.680;8.894;2022-08-20T01:38:28;19.30;99.90
17385;DHT22;8810;48.680;8.894;2022-08-20T01:41:21;19.30;99.90
17385;DHT22;8810;48.680;8.894;2022-08-20T01:43:51;19.30;99.90
17385;DHT22;8810;48.680;8.894;2022-08-20T01:46:23;19.30;99.90
17385;DHT22;8810;48.680;8.894;2022-08-20T01:48:51;19.30;99.90
17385;DHT22;8810;48.680;8.894;2022-08-20T01:51:22;19.30;99.90
17385;DHT22;8810;48.680;8.894;2022-08-20T01:53:52;19.30;99.90
17385;DHT22;8810;48.680;8.894;2022-08-20T01:56:23;19.30;99.90
17385;DHT22;8810;48.680;8.894;2022-08-20T01:58:53;19.30;99.90
17385;DHT22;8810;48.680;8.894;2022-08-20T02:01:24;19.30;99.90
17385;DHT22;8810;48.680;8.894;2022-08-20T02:03:52;19.30;99.90
17385;DHT22;8810;48.680;8.894;2022-08-20T02:06:21;19.30;99.90
17385;DHT22;8810;48.680;8.894;2022-08-20T02:08:50;19.30;99.90
17385;DHT22;8810;48.680;8.894;2022-08-20T02:11:18;19.30;99.90
17385;DHT22;8810;48.680;8.894;2022-08-20T02:13:46;19.30;99.90
17385;DHT22;8810;48.680;8.894;2022-08-20T02:16:17;19.30;99.90
17385;DHT22;8810;48.680;8.894;2022-08-20T02:18:44;19.30;99.90
17385;DHT22;8810;48.680;8.894;2022-08-20T02:21:12;19.30;99.90
17385;DHT22;8810;48.680;8.894;2022-08-20T02:23:38;19.30;99.90
17385;DHT22;8810;48.680;8.894;2022-08-20T02:26:05;19.20;99.90
17385;DHT22;8810;48.680;8.894;2022-08-20T02:28:32;19.30;99.90
17385;DHT22;8810;48.680;8.894;2022-08-20T02:31:01;19.30;99.90
17385;DHT22;8810;48.680;8.894;2022-08-20T02:33:33;19.30;99.90
17385;DHT22;8810;48.680;8.894;2022-08-20T02:36:00;19.30;99.90
17385;DHT22;8810;48.680;8.894;2022-08-20T02:38:27;19.30;99.90
17385;DHT22;8810;48.680;8.894;2022-08-20T02:40:54;19.30;99.90
17385;DHT22;8810;48.680;8.894;2022-08-20T02:43:21;19.30;99.90
17385;DHT22;8810;48.680;8.894;2022-08-20T02:45:48;19.20;99.90
17385;DHT22;8810;48.680;8.894;2022-08-20T02:48:19;19.20;99.90
17385;DHT22;8810;48.680;8.894;2022-08-20T02:50:49;19.20;99.90
17385;DHT22;8810;48.680;8.894;2022-08-20T02:53:17;19.20;99.90
17385;DHT22;8810;48.680;8.894;2022-08-20T02:55:44;19.10;99.90
17385;DHT22;8810;48.680;8.894;2022-08-20T02:58:11;19.10;99.90
17385;DHT22;8810;48.680;8.894;2022-08-20T03:00:38;19.10;99.90
17385;DHT22;8810;48.680;8.894;2022-08-20T03:03:07;19.00;99.90
17385;DHT22;8810;48.680;8.894;2022-08-20T03:05:36;19.00;99.90
17385;DHT22;8810;48.680;8.894;2022-08-20T03:08:04;18.90;99.90
17385;DHT22;8810;48.680;8.894;2022-08-20T03:10:34;18.90;99.90
17385;DHT22;8810;48.680;8.894;2022-08-20T03:13:02;18.90;99.90
17385;DHT22;8810;48.680;8.894;2022-08-20T03:15:30;18.90;99.90
17385;DHT22;8810;48.680;8.894;2022-08-20T03:17:57;18.80;99.90
17385;DHT22;8810;48.680;8.894;2022-08-20T03:20:25;18.80;99.90
17385;DHT22;8810;48.680;8.894;2022-08-20T03:22:54;18.80;99.90
17385;DHT22;8810;48.680;8.894;2022-08-20T03:25:21;18.80;99.90
17385;DHT22;8810;48.680;8.894;2022-08-20T03:27:48;18.80;99.90
17385;DHT22;8810;48.680;8.894;2022-08-20T03:30:16;18.80;99.90
17385;DHT22;8810;48.680;8.894;2022-08-20T03:32:44;18.80;99.90
17385;DHT22;8810;48.680;8.894;2022-08-20T03:35:13;18.80;99.90
17385;DHT22;8810;48.680;8.894;2022-08-20T03:37:40;18.90;99.90
17385;DHT22;8810;48.680;8.894;2022-08-20T03:40:12;18.80;99.90
17385;DHT22;8810;48.680;8.894;2022-08-20T03:42:40;18.80;99.90
17385;DHT22;8810;48.680;8.894;2022-08-20T03:45:09;18.70;99.90
17385;DHT22;8810;48.680;8.894;2022-08-20T03:47:36;18.70;99.90
17385;DHT22;8810;48.680;8.894;2022-08-20T03:50:05;18.60;99.90
17385;DHT22;8810;48.680;8.894;2022-08-20T03:55:00;18.60;99.90
17385;DHT22;8810;48.680;8.894;2022-08-20T03:57:28;18.50;99.90
17385;DHT22;8810;48.680;8.894;2022-08-20T03:59:55;18.50;99.90
17385;DHT22;8810;48.680;8.894;2022-08-20T04:02:23;18.50;99.90
17385;DHT22;8810;48.680;8.894;2022-08-20T04:04:50;18.50;99.90
17385;DHT22;8810;48.680;8.894;2022-08-20T04:07:19;18.50;99.90
17385;DHT22;8810;48.680;8.894;2022-08-20T04:09:50;18.50;99.90
17385;DHT22;8810;48.680;8.894;2022-08-20T04:12:17;18.50;99.90
17385;DHT22;8810;48.680;8.894;2022-08-20T04:14:45;18.50;99.90
17385;DHT22;8810;48.680;8.894;2022-08-20T04:17:12;18.50;99.90
17385;DHT22;8810;48.680;8.894;2022-08-20T04:19:39;18.50;99.90
17385;DHT22;8810;48.680;8.894;2022-08-20T04:22:06;18.50;99.90
17385;DHT22;8810;48.680;8.894;2022-08-20T04:24:34;18.50;99.90
17385;DHT22;8810;48.680;8.894;2022-08-20T04:27:02;18.50;99.90
17385;DHT22;8810;48.680;8.894;2022-08-20T04:29:30;18.50;99.90
17385;DHT22;8810;48.680;8.894;2022-08-20T04:31:59;18.50;99.90
17385;DHT22;8810;48.680;8.894;2022-08-20T04:34:27;18.50;99.90
17385;DHT22;8810;48.680;8.894;2022-08-20T04:36:54;18.40;99.90
17385;DHT22;8810;48.680;8.894;2022-08-20T04:39:21;18.40;99.90
17385;DHT22;8810;48.680;8.894;2022-08-20T04:41:48;18.40;99.90
17385;DHT22;8810;48.680;8.894;2022-08-20T04:44:14;18.40;99.90
17385;DHT22;8810;48.680;8.894;2022-08-20T04:46:42;18.40;99.90
17385;DHT22;8810;48.680;8.894;2022-08-20T04:49:10;18.40;99.90
17385;DHT22;8810;48.680;8.894;2022-08-20T04:51:37;18.40;99.90
17385;DHT22;8810;48.680;8.894;2022-08-20T04:54:04;18.30;99.90
17385;DHT22;8810;48.680;8.894;2022-08-20T04:56:33;18.40;99.90
17385;DHT22;8810;48.680;8.894;2022-08-20T04:59:03;18.40;99.90
17385;DHT22;8810;48.680;8.894;2022-08-20T05:01:30;18.40;99.90
17385;DHT22;8810;48.680;8.894;2022-08-20T05:03:58;18.40;99.90
17385;DHT22;8810;48.680;8.894;2022-08-20T05:06:28;18.40;99.90
17385;DHT22;8810;48.680;8.894;2022-08-20T05:08:56;18.30;99.90
17385;DHT22;8810;48.680;8.894;2022-08-20T05:11:24;18.30;99.90
17385;DHT22;8810;48.680;8.894;2022-08-20T05:13:51;18.30;99.90
17385;DHT22;8810;48.680;8.894;2022-08-20T05:16:18;18.30;99.90
17385;DHT22;8810;48.680;8.894;2022-08-20T05:18:45;18.30;99.90
17385;DHT22;8810;48.680;8.894;2022-08-20T05:21:12;18.30;99.90
17385;DHT22;8810;48.680;8.894;2022-08-20T05:23:40;18.30;99.90
17385;DHT22;8810;48.680;8.894;2022-08-20T05:26:08;18.30;99.90
17385;DHT22;8810;48.680;8.894;2022-08-20T05:28:36;18.40;99.90
17385;DHT22;8810;48.680;8.894;2022-08-20T05:31:05;18.40;99.90
17385;DHT22;8810;48.680;8.894;2022-08-20T05:33:34;18.50;99.90
17385;DHT22;8810;48.680;8.894;2022-08-20T05:36:02;18.50;99.90
17385;DHT22;8810;48.680;8.894;2022-08-20T05:38:32;18.50;99.90
17385;DHT22;8810;48.680;8.894;2022-08-20T05:41:02;18.60;99.90
17385;DHT22;8810;48.680;8.894;2022-08-20T05:43:29;18.60;99.90
17385;DHT22;8810;48.680;8.894;2022-08-20T05:45:59;18.60;99.90
17385;DHT22;8810;48.680;8.894;2022-08-20T05:48:26;18.60;99.90
17385;DHT22;8810;48.680;8.894;2022-08-20T05:50:53;18.60;99.90
17385;DHT22;8810;48.680;8.894;2022-08-20T05:53:22;18.60;99.90
17385;DHT22;8810;48.680;8.894;2022-08-20T05:55:49;18.70;99.90
17385;DHT22;8810;48.680;8.894;2022-08-20T05:58:20;18.70;99.90
17385;DHT22;8810;48.680;8.894;2022-08-20T06:00:47;18.70;99.90
17385;DHT22;8810;48.680;8.894;2022-08-20T06:03:15;18.70;99.90
17385;DHT22;8810;48.680;8.894;2022-08-20T06:06:10;18.80;99.90
17385;DHT22;8810;48.680;8.894;2022-08-20T06:08:37;18.90;99.90
17385;DHT22;8810;48.680;8.894;2022-08-20T06:11:05;18.90;99.90
17385;DHT22;8810;48.680;8.894;2022-08-20T06:13:33;18.90;99.90
17385;DHT22;8810;48.680;8.894;2022-08-20T06:16:00;18.90;99.90
17385;DHT22;8810;48.680;8.894;2022-08-20T06:18:27;18.90;99.90
17385;DHT22;8810;48.680;8.894;2022-08-20T06:20:55;18.90;99.90
17385;DHT22;8810;48.680;8.894;2022-08-20T06:23:22;19.00;99.90
17385;DHT22;8810;48.680;8.894;2022-08-20T06:25:50;19.00;99.90
17385;DHT22;8810;48.680;8.894;2022-08-20T06:28:17;19.10;99.90
17385;DHT22;8810;48.680;8.894;2022-08-20T06:30:45;19.10;99.90
17385;DHT22;8810;48.680;8.894;2022-08-20T06:33:12;19.20;99.90
17385;DHT22;8810;48.680;8.894;2022-08-20T06:35:39;19.30;99.90
17385;DHT22;8810;48.680;8.894;2022-08-20T06:38:09;19.30;99.90
17385;DHT22;8810;48.680;8.894;2022-08-20T06:40:37;19.40;99.90
17385;DHT22;8810;48.680;8.894;2022-08-20T06:43:04;19.40;99.90
17385;DHT22;8810;48.680;8.894;2022-08-20T06:45:34;19.40;99.90
17385;DHT22;8810;48.680;8.894;2022-08-20T06:48:06;19.50;99.90
17385;DHT22;8810;48.680;8.894;2022-08-20T06:50:35;19.50;99.90
17385;DHT22;8810;48.680;8.894;2022-08-20T06:53:04;19.50;99.90
17385;DHT22;8810;48.680;8.894;2022-08-20T06:55:31;19.50;99.90
17385;DHT22;8810;48.680;8.894;2022-08-20T06:58:00;19.50;99.90
17385;DHT22;8810;48.680;8.894;2022-08-20T07:00:28;19.60;99.90
17385;DHT22;8810;48.680;8.894;2022-08-20T07:02:56;19.60;99.90
17385;DHT22;8810;48.680;8.894;2022-08-20T07:05:26;19.70;99.90
17385;DHT22;8810;48.680;8.894;2022-08-20T07:07:53;19.80;99.90
17385;DHT22;8810;48.680;8.894;2022-08-20T07:10:22;19.80;99.90
17385;DHT22;8810;48.680;8.894;2022-08-20T07:12:50;19.90;99.90
17385;DHT22;8810;48.680;8.894;2022-08-20T07:15:19;20.00;99.90
17385;DHT22;8810;48.680;8.894;2022-08-20T07:17:48;20.10;99.90
17385;DHT22;8810;48.680;8.894;2022-08-20T07:20:16;20.20;99.90
17385;DHT22;8810;48.680;8.894;2022-08-20T07:22:44;20.20;99.90
17385;DHT22;8810;48.680;8.894;2022-08-20T07:25:14;20.30;99.90
17385;DHT22;8810;48.680;8.894;2022-08-20T07:27:41;20.30;99.90
17385;DHT22;8810;48.680;8.894;2022-08-20T07:30:13;20.40;99.90
17385;DHT22;8810;48.680;8.894;2022-08-20T07:32:58;20.40;99.90
17385;DHT22;8810;48.680;8.894;2022-08-20T07:35:25;20.40;99.90
17385;DHT22;8810;48.680;8.894;2022-08-20T07:37:53;20.50;99.90
17385;DHT22;8810;48.680;8.894;2022-08-20T07:40:23;20.50;99.90
17385;DHT22;8810;48.680;8.894;2022-08-20T07:42:52;20.50;99.90
17385;DHT22;8810;48.680;8.894;2022-08-20T07:45:19;20.60;99.90
17385;DHT22;8810;48.680;8.894;2022-08-20T07:47:47;20.70;99.90
17385;DHT22;8810;48.680;8.894;2022-08-20T07:50:17;20.70;99.90
17385;DHT22;8810;48.680;8.894;2022-08-20T07:52:45;20.70;99.90
17385;DHT22;8810;48.680;8.894;2022-08-20T07:55:15;20.70;99.90
17385;DHT22;8810;48.680;8.894;2022-08-20T07:57:42;20.80;99.90
17385;DHT22;8810;48.680;8.894;2022-08-20T08:00:12;20.70;99.90
17385;DHT22;8810;48.680;8.894;2022-08-20T08:02:39;20.70;99.90
17385;DHT22;8810;48.680;8.894;2022-08-20T08:05:07;20.70;99.90
17385;DHT22;8810;48.680;8.894;2022-08-20T08:07:34;20.70;99.90
17385;DHT22;8810;48.680;8.894;2022-08-20T08:10:03;20.80;99.90
17385;DHT22;8810;48.680;8.894;2022-08-20T08:12:37;20.80;99.90
17385;DHT22;8810;48.680;8.894;2022-08-20T08:15:07;20.90;99.90
17385;DHT22;8810;48.680;8.894;2022-08-20T08:17:36;20.90;99.90
17385;DHT22;8810;48.680;8.894;2022-08-20T08:20:04;20.90;99.90
17385;DHT22;8810;48.680;8.894;2022-08-20T08:22:31;21.00;99.90
17385;DHT22;8810;48.680;8.894;2022-08-20T08:24:59;21.10;99.90
17385;DHT22;8810;48.680;8.894;2022-08-20T08:27:27;21.20;99.90
17385;DHT22;8810;48.680;8.894;2022-08-20T08:29:59;21.30;99.90
17385;DHT22;8810;48.680;8.894;2022-08-20T08:32:28;21.50;99.90
17385;DHT22;8810;48.680;8.894;2022-08-20T08:34:56;21.60;99.90
17385;DHT22;8810;48.680;8.894;2022-08-20T08:37:23;21.70;99.90
17385;DHT22;8810;48.680;8.894;2022-08-20T08:39:50;21.80;99.90
17385;DHT22;8810;48.680;8.894;2022-08-20T08:42:23;21.90;99.90
17385;DHT22;8810;48.680;8.894;2022-08-20T08:44:52;22.00;99.90
17385;DHT22;8810;48.680;8.894;2022-08-20T08:47:25;22.10;99.90
17385;DHT22;8810;48.680;8.894;2022-08-20T08:49:54;22.10;99.90
17385;DHT22;8810;48.680;8.894;2022-08-20T08:52:24;22.20;99.90
17385;DHT22;8810;48.680;8.894;2022-08-20T08:54:53;22.20;99.90
17385;DHT22;8810;48.680;8.894;2022-08-20T08:57:21;22.20;99.90
17385;DHT22;8810;48.680;8.894;2022-08-20T08:59:54;22.30;99.90
17385;DHT22;8810;48.680;8.894;2022-08-20T09:02:24;22.40;99.90
17385;DHT22;8810;48.680;8.894;2022-08-20T09:04:52;22.50;99.90
17385;DHT22;8810;48.680;8.894;2022-08-20T09:07:22;22.60;99.90
17385;DHT22;8810;48.680;8.894;2022-08-20T09:09:51;22.70;99.90
17385;DHT22;8810;48.680;8.894;2022-08-20T09:12:20;22.80;99.90
17385;DHT22;8810;48.680;8.894;2022-08-20T09:14:49;22.80;99.90
17385;DHT22;8810;48.680;8.894;2022-08-20T09:17:18;22.90;99.90
17385;DHT22;8810;48.680;8.894;2022-08-20T09:19:47;23.00;99.90
17385;DHT22;8810;48.680;8.894;2022-08-20T09:22:17;23.00;99.90
17385;DHT22;8810;48.680;8.894;2022-08-20T09:24:44;23.10;99.90
17385;DHT22;8810;48.680;8.894;2022-08-20T09:27:11;23.20;99.90
17385;DHT22;8810;48.680;8.894;2022-08-20T09:29:39;23.30;99.90
17385;DHT22;8810;48.680;8.894;2022-08-20T09:32:08;23.40;99.90
17385;DHT22;8810;48.680;8.894;2022-08-20T09:34:36;23.50;99.90
17385;DHT22;8810;48.680;8.894;2022-08-20T09:37:05;23.50;99.90
17385;DHT22;8810;48.680;8.894;2022-08-20T09:39:32;23.50;99.90
17385;DHT22;8810;48.680;8.894;2022-08-20T09:42:06;23.40;99.90
17385;DHT22;8810;48.680;8.894;2022-08-20T09:44:33;23.40;99.90
17385;DHT22;8810;48.680;8.894;2022-08-20T09:47:00;23.50;99.90
17385;DHT22;8810;48.680;8.894;2022-08-20T09:49:27;23.60;99.90
17385;DHT22;8810;48.680;8.894;2022-08-20T09:51:55;23.60;99.90
17385;DHT22;8810;48.680;8.894;2022-08-20T09:54:23;23.60;99.90
17385;DHT22;8810;48.680;8.894;2022-08-20T09:56:54;23.80;99.90
17385;DHT22;8810;48.680;8.894;2022-08-20T09:59:21;23.90;99.90
17385;DHT22;8810;48.680;8.894;2022-08-20T10:01:48;24.10;99.90
17385;DHT22;8810;48.680;8.894;2022-08-20T10:04:15;24.30;99.90
17385;DHT22;8810;48.680;8.894;2022-08-20T10:06:42;24.40;99.90
17385;DHT22;8810;48.680;8.894;2022-08-20T10:09:09;24.50;99.90
17385;DHT22;8810;48.680;8.894;2022-08-20T10:11:37;24.60;99.90
17385;DHT22;8810;48.680;8.894;2022-08-20T10:14:04;24.60;99.90
17385;DHT22;8810;48.680;8.894;2022-08-20T10:16:31;24.40;99.90
17385;DHT22;8810;48.680;8.894;2022-08-20T10:18:58;24.20;99.90
17385;DHT22;8810;48.680;8.894;2022-08-20T10:21:25;23.90;99.90
17385;DHT22;8810;48.680;8.894;2022-08-20T10:23:52;23.60;99.90
17385;DHT22;8810;48.680;8.894;2022-08-20T10:26:19;23.40;99.90
17385;DHT22;8810;48.680;8.894;2022-08-20T10:28:47;23.20;99.90
17385;DHT22;8810;48.680;8.894;2022-08-20T10:31:14;22.90;99.90
17385;DHT22;8810;48.680;8.894;2022-08-20T10:33:41;22.70;99.90
17385;DHT22;8810;48.680;8.894;2022-08-20T10:36:10;22.50;99.90
17385;DHT22;8810;48.680;8.894;2022-08-20T10:38:37;22.30;99.90
17385;DHT22;8810;48.680;8.894;2022-08-20T10:41:05;22.30;99.90
17385;DHT22;8810;48.680;8.894;2022-08-20T10:43:31;22.20;99.90
17385;DHT22;8810;48.680;8.894;2022-08-20T10:46:00;22.10;99.90
17385;DHT22;8810;48.680;8.894;2022-08-20T10:48:27;22.10;99.90
17385;DHT22;8810;48.680;8.894;2022-08-20T10:50:54;22.10;99.90
17385;DHT22;8810;48.680;8.894;2022-08-20T10:53:21;22.10;99.90
17385;DHT22;8810;48.680;8.894;2022-08-20T10:55:47;22.10;99.90
17385;DHT22;8810;48.680;8.894;2022-08-20T10:58:14;22.00;99.90
17385;DHT22;8810;48.680;8.894;2022-08-20T11:00:41;21.80;99.90
17385;DHT22;8810;48.680;8.894;2022-08-20T11:03:11;21.70;99.90
17385;DHT22;8810;48.680;8.894;2022-08-20T11:05:38;21.60;99.90
17385;DHT22;8810;48.680;8.894;2022-08-20T11:08:05;21.50;99.90
17385;DHT22;8810;48.680;8.894;2022-08-20T11:10:35;21.40;99.90
17385;DHT22;8810;48.680;8.894;2022-08-20T11:13:04;21.40;99.90
17385;DHT22;8810;48.680;8.894;2022-08-20T11:15:33;21.40;99.90
17385;DHT22;8810;48.680;8.894;2022-08-20T11:18:01;21.40;99.90
17385;DHT22;8810;48.680;8.894;2022-08-20T11:20:30;21.40;99.90
17385;DHT22;8810;48.680;8.894;2022-08-20T11:22:57;21.30;99.90
17385;DHT22;8810;48.680;8.894;2022-08-20T11:25:25;21.30;99.90
17385;DHT22;8810;48.680;8.894;2022-08-20T11:27:53;21.30;99.90
17385;DHT22;8810;48.680;8.894;2022-08-20T11:30:23;21.20;99.90
17385;DHT22;8810;48.680;8.894;2022-08-20T11:32:51;21.10;99.90
17385;DHT22;8810;48.680;8.894;2022-08-20T11:35:18;21.10;99.90
17385;DHT22;8810;48.680;8.894;2022-08-20T11:37:47;21.10;99.90
17385;DHT22;8810;48.680;8.894;2022-08-20T11:40:14;21.00;99.90
17385;DHT22;8810;48.680;8.894;2022-08-20T11:42:41;20.90;99.90
17385;DHT22;8810;48.680;8.894;2022-08-20T11:45:09;20.90;99.90
17385;DHT22;8810;48.680;8.894;2022-08-20T11:47:36;21.00;99.90
17385;DHT22;8810;48.680;8.894;2022-08-20T11:50:07;21.00;99.90
17385;DHT22;8810;48.680;8.894;2022-08-20T11:52:35;21.10;99.90
17385;DHT22;8810;48.680;8.894;2022-08-20T11:55:05;21.10;99.90
17385;DHT22;8810;48.680;8.894;2022-08-20T11:57:34;21.10;99.90
17385;DHT22;8810;48.680;8.894;2022-08-20T12:00:05;21.20;99.90
17385;DHT22;8810;48.680;8.894;2022-08-20T12:02:33;21.20;99.90
17385;DHT22;8810;48.680;8.894;2022-08-20T12:05:00;21.20;99.90
17385;DHT22;8810;48.680;8.894;2022-08-20T12:07:27;21.30;99.90
17385;DHT22;8810;48.680;8.894;2022-08-20T12:09:54;21.40;99.90
17385;DHT22;8810;48.680;8.894;2022-08-20T12:12:23;21.50;99.90
17385;DHT22;8810;48.680;8.894;2022-08-20T12:14:50;21.70;99.90
17385;DHT22;8810;48.680;8.894;2022-08-20T12:17:19;21.80;99.90
17385;DHT22;8810;48.680;8.894;2022-08-20T12:19:49;22.10;99.90
17385;DHT22;8810;48.680;8.894;2022-08-20T12:22:17;22.30;99.90
17385;DHT22;8810;48.680;8.894;2022-08-20T12:24:44;22.60;99.90
17385;DHT22;8810;48.680;8.894;2022-08-20T12:27:12;22.80;99.90
17385;DHT22;8810;48.680;8.894;2022-08-20T12:29:42;22.90;99.90
17385;DHT22;8810;48.680;8.894;2022-08-20T12:32:09;23.10;99.90
17385;DHT22;8810;48.680;8.894;2022-08-20T12:34:38;23.60;99.90
17385;DHT22;8810;48.680;8.894;2022-08-20T12:37:07;24.10;99.90
17385;DHT22;8810;48.680;8.894;2022-08-20T12:39:37;24.70;99.90
17385;DHT22;8810;48.680;8.894;2022-08-20T12:42:04;25.10;99.90
17385;DHT22;8810;48.680;8.894;2022-08-20T12:44:31;25.10;99.90
17385;DHT22;8810;48.680;8.894;2022-08-20T12:47:07;25.20;99.90
17385;DHT22;8810;48.680;8.894;2022-08-20T12:49:35;25.40;99.90
17385;DHT22;8810;48.680;8.894;2022-08-20T12:52:03;25.50;99.90
17385;DHT22;8810;48.680;8.894;2022-08-20T12:54:30;25.70;99.90
17385;DHT22;8810;48.680;8.894;2022-08-20T12:56:57;25.90;99.90
17385;DHT22;8810;48.680;8.894;2022-08-20T12:59:24;26.00;99.90
17385;DHT22;8810;48.680;8.894;2022-08-20T13:01:52;26.10;99.90
17385;DHT22;8810;48.680;8.894;2022-08-20T13:04:21;25.90;99.90
17385;DHT22;8810;48.680;8.894;2022-08-20T13:06:48;25.60;99.90
17385;DHT22;8810;48.680;8.894;2022-08-20T13:09:15;25.80;99.90
17385;DHT22;8810;48.680;8.894;2022-08-20T13:11:42;25.90;99.90
17385;DHT22;8810;48.680;8.894;2022-08-20T13:14:09;26.20;99.90
17385;DHT22;8810;48.680;8.894;2022-08-20T13:16:36;26.20;99.90
17385;DHT22;8810;48.680;8.894;2022-08-20T13:19:03;26.20;99.90
17385;DHT22;8810;48.680;8.894;2022-08-20T13:21:31;25.90;99.90
17385;DHT22;8810;48.680;8.894;2022-08-20T13:23:58;26.10;99.90
17385;DHT22;8810;48.680;8.894;2022-08-20T13:26:25;26.30;99.90
17385;DHT22;8810;48.680;8.894;2022-08-20T13:28:52;26.50;99.90
17385;DHT22;8810;48.680;8.894;2022-08-20T13:31:19;26.70;99.90
17385;DHT22;8810;48.680;8.894;2022-08-20T13:33:46;26.80;99.90
17385;DHT22;8810;48.680;8.894;2022-08-20T13:36:13;26.90;99.90
17385;DHT22;8810;48.680;8.894;2022-08-20T13:38:41;27.10;99.90
17385;DHT22;8810;48.680;8.894;2022-08-20T13:41:08;27.00;99.90
17385;DHT22;8810;48.680;8.894;2022-08-20T13:43:35;26.90;99.90
17385;DHT22;8810;48.680;8.894;2022-08-20T13:46:02;26.70;99.90
17385;DHT22;8810;48.680;8.894;2022-08-20T13:48:29;26.80;99.90
17385;DHT22;8810;48.680;8.894;2022-08-20T13:50:56;27.00;99.90
17385;DHT22;8810;48.680;8.894;2022-08-20T13:53:23;27.10;99.90
17385;DHT22;8810;48.680;8.894;2022-08-20T13:55:51;27.40;99.90
17385;DHT22;8810;48.680;8.894;2022-08-20T13:58:19;27.40;99.90
17385;DHT22;8810;48.680;8.894;2022-08-20T14:00:47;27.60;99.90
17385;DHT22;8810;48.680;8.894;2022-08-20T14:03:14;27.70;99.90
17385;DHT22;8810;48.680;8.894;2022-08-20T14:05:42;27.70;99.90
17385;DHT22;8810;48.680;8.894;2022-08-20T14:08:12;27.50;99.90
17385;DHT22;8810;48.680;8.894;2022-08-20T14:10:40;27.50;99.90
17385;DHT22;8810;48.680;8.894;2022-08-20T14:13:09;27.60;99.90
17385;DHT22;8810;48.680;8.894;2022-08-20T14:15:37;27.80;99.10
17385;DHT22;8810;48.680;8.894;2022-08-20T14:18:04;28.00;98.20
17385;DHT22;8810;48.680;8.894;2022-08-20T14:20:32;28.00;97.00
17385;DHT22;8810;48.680;8.894;2022-08-20T14:23:00;27.90;96.40
17385;DHT22;8810;48.680;8.894;2022-08-20T14:25:29;27.60;95.80
17385;DHT22;8810;48.680;8.894;2022-08-20T14:27:56;27.30;95.70
17385;DHT22;8810;48.680;8.894;2022-08-20T14:30:27;27.10;96.30
17385;DHT22;8810;48.680;8.894;2022-08-20T14:32:55;27.20;96.90
17385;DHT22;8810;48.680;8.894;2022-08-20T14:35:22;27.20;97.40
17385;DHT22;8810;48.680;8.894;2022-08-20T14:37:51;26.90;97.50
17385;DHT22;8810;48.680;8.894;2022-08-20T14:40:19;26.60;97.60
17385;DHT22;8810;48.680;8.894;2022-08-20T14:42:47;26.50;98.20
17385;DHT22;8810;48.680;8.894;2022-08-20T14:45:14;26.50;98.20
17385;DHT22;8810;48.680;8.894;2022-08-20T14:47:44;26.60;97.90
17385;DHT22;8810;48.680;8.894;2022-08-20T14:50:14;26.80;97.40
17385;DHT22;8810;48.680;8.894;2022-08-20T14:52:42;26.90;97.00
17385;DHT22;8810;48.680;8.894;2022-08-20T14:55:12;27.10;96.20
17385;DHT22;8810;48.680;8.894;2022-08-20T14:57:40;27.20;96.40
17385;DHT22;8810;48.680;8.894;2022-08-20T15:00:10;27.30;96.20
17385;DHT22;8810;48.680;8.894;2022-08-20T15:02:38;27.50;96.10
17385;DHT22;8810;48.680;8.894;2022-08-20T15:05:07;27.60;95.70
17385;DHT22;8810;48.680;8.894;2022-08-20T15:07:36;27.80;95.20
17385;DHT22;8810;48.680;8.894;2022-08-20T15:10:07;27.70;94.70
17385;DHT22;8810;48.680;8.894;2022-08-20T15:12:34;27.70;94.60
17385;DHT22;8810;48.680;8.894;2022-08-20T15:15:03;27.30;94.20
17385;DHT22;8810;48.680;8.894;2022-08-20T15:17:31;27.10;94.30
17385;DHT22;8810;48.680;8.894;2022-08-20T15:20:00;27.20;94.60
17385;DHT22;8810;48.680;8.894;2022-08-20T15:22:31;27.30;94.00
17385;DHT22;8810;48.680;8.894;2022-08-20T15:24:58;27.30;93.70
17385;DHT22;8810;48.680;8.894;2022-08-20T15:27:25;27.40;94.10
17385;DHT22;8810;48.680;8.894;2022-08-20T15:29:53;27.50;93.80
17385;DHT22;8810;48.680;8.894;2022-08-20T15:32:20;27.50;93.70
17385;DHT22;8810;48.680;8.894;2022-08-20T15:34:47;27.40;92.70
17385;DHT22;8810;48.680;8.894;2022-08-20T15:37:16;27.40;92.40
17385;DHT22;8810;48.680;8.894;2022-08-20T15:39:45;27.30;91.40
17385;DHT22;8810;48.680;8.894;2022-08-20T15:42:13;27.10;91.00
17385;DHT22;8810;48.680;8.894;2022-08-20T15:44:41;27.10;91.30
17385;DHT22;8810;48.680;8.894;2022-08-20T15:47:17;27.00;92.00
17385;DHT22;8810;48.680;8.894;2022-08-20T15:49:45;27.10;92.20
17385;DHT22;8810;48.680;8.894;2022-08-20T15:52:13;27.30;92.00
17385;DHT22;8810;48.680;8.894;2022-08-20T15:54:40;27.40;91.80